sensor_id;sensor_type;location;lat;lon;timestamp;pressure;altitude;pressure_sealevel;temperature;humidity
72226;BME280;60130;52.250;5.048;2023-03-16T00:00:00;390.5;;;5.5;0.0
72226;BME280;60130;52.250;5.048;2023-03-16T00:05:00;390.5;;;5.5;0.0
72226;BME280;60130;52.250;5.048;2023-03-16T00:10:00;390.5;;;5.5;0.0
72226;BME280;60130;52.250;5.048;2023-03-16T00:15:00;390.5;;;5.5;0.0
72226;BME280;60130;52.250;5.048;2023-03-16T00:20:00;390.5;;;5.5;0.0
72226;BME280;60130;52.250;5.048;2023-03-16T00:25:00;390.5;;;5.5;0.0
72226;BME280;60130;52.250;5.048;2023-03-16T00:30:00;390.6;;;5.6;0.0
72226;BME280;60130;52.250;5.048;2023-03-16T00:35:01;390.6;;;5.6;0.0
72226;BME280;60130;52.250;5.048;2023-03-16T00:40:00;390.6;;;5.6;0.0
72226;BME280;60130;52.250;5.048;2023-03-16T00:45:00;390.6;;;5.6;0.0
72226;BME280;60130;52.250;5.048;2023-03-16T00:50:01;390.6;;;5.7;0.0
72226;BME280;60130;52.250;5.048;2023-03-16T00:55:00;390.6;;;5.6;0.0
72226;BME280;60130;52.250;5.048;2023-03-16T01:00:00;390.7;;;5.7;0.0
72226;BME280;60130;52.250;5.048;2023-03-16T01:05:00;390.6;;;5.7;0.0
72226;BME280;60130;52.250;5.048;2023-03-16T01:10:00;390.7;;;5.7;0.0
72226;BME280;60130;52.250;5.048;2023-03-16T01:15:00;390.7;;;5.8;0.0
72226;BME280;60130;52.250;5.048;2023-03-16T01:20:00;390.7;;;5.8;0.0
72226;BME280;60130;52.250;5.048;2023-03-16T01:25:00;390.7;;;5.7;0.0
72226;BME280;60130;52.250;5.048;2023-03-16T01:30:00;390.7;;;5.8;0.0
72226;BME280;60130;52.250;5.048;2023-03-16T01:35:00;390.8;;;5.8;0.0
72226;BME280;60130;52.250;5.048;2023-03-16T01:40:00;390.8;;;5.9;0.0
72226;BME280;60130;52.250;5.048;2023-03-16T01:45:00;390.8;;;5.9;0.0
72226;BME280;60130;52.250;5.048;2023-03-16T01:50:00;390.8;;;5.9;0.0
72226;BME280;60130;52.250;5.048;2023-03-16T01:55:03;390.8;;;5.9;0.0
72226;BME280;60130;52.250;5.048;2023-03-16T02:00:05;390.9;;;6.0;0.0
72226;BME280;60130;52.250;5.048;2023-03-16T02:05:02;391.0;;;6.1;0.0
72226;BME280;60130;52.250;5.048;2023-03-16T02:10:02;390.9;;;6.1;0.0
72226;BME280;60130;52.250;5.048;2023-03-16T02:15:00;390.9;;;6.0;0.0
72226;BME280;60130;52.250;5.048;2023-03-16T02:20:07;390.9;;;6.0;0.0
72226;BME280;60130;52.250;5.048;2023-03-16T02:25:00;390.9;;;6.1;0.0
72226;BME280;60130;52.250;5.048;2023-03-16T02:30:03;390.9;;;6.0;0.0
72226;BME280;60130;52.250;5.048;2023-03-16T02:35:01;390.9;;;6.1;0.0
72226;BME280;60130;52.250;5.048;2023-03-16T02:40:00;390.9;;;6.0;0.0
72226;BME280;60130;52.250;5.048;2023-03-16T02:45:00;390.9;;;6.0;0.0
72226;BME280;60130;52.250;5.048;2023-03-16T02:50:00;390.9;;;6.0;0.0
72226;BME280;60130;52.250;5.048;2023-03-16T02:55:00;390.9;;;6.0;0.0
72226;BME280;60130;52.250;5.048;2023-03-16T03:00:00;390.9;;;6.0;0.0
72226;BME280;60130;52.250;5.048;2023-03-16T03:05:00;390.9;;;6.1;0.0
72226;BME280;60130;52.250;5.048;2023-03-16T03:10:00;391.0;;;6.2;0.0
72226;BME280;60130;52.250;5.048;2023-03-16T03:15:00;391.0;;;6.2;0.0
72226;BME280;60130;52.250;5.048;2023-03-16T03:20:00;391.0;;;6.1;0.0
72226;BME280;60130;52.250;5.048;2023-03-16T03:25:00;390.9;;;6.1;0.0
72226;BME280;60130;52.250;5.048;2023-03-16T03:30:00;390.9;;;6.1;0.0
72226;BME280;60130;52.250;5.048;2023-03-16T03:35:00;390.9;;;6.0;0.0
72226;BME280;60130;52.250;5.048;2023-03-16T03:40:00;390.8;;;6.0;0.0
72226;BME280;60130;52.250;5.048;2023-03-16T03:45:00;390.8;;;5.9;0.0
72226;BME280;60130;52.250;5.048;2023-03-16T03:50:00;390.8;;;5.9;0.0
72226;BME280;60130;52.250;5.048;2023-03-16T03:55:00;390.8;;;5.8;0.0
72226;BME280;60130;52.250;5.048;2023-03-16T04:00:00;390.8;;;5.9;0.0
72226;BME280;60130;52.250;5.048;2023-03-16T04:05:00;390.8;;;5.8;0.0
72226;BME280;60130;52.250;5.048;2023-03-16T04:10:00;390.8;;;5.8;0.0
72226;BME280;60130;52.250;5.048;2023-03-16T04:15:00;390.8;;;5.9;0.0
72226;BME280;60130;52.250;5.048;2023-03-16T04:20:00;390.9;;;6.0;0.0
72226;BME280;60130;52.250;5.048;2023-03-16T04:25:00;390.8;;;5.9;0.0
72226;BME280;60130;52.250;5.048;2023-03-16T04:30:00;390.9;;;6.0;0.0
72226;BME280;60130;52.250;5.048;2023-03-16T04:35:00;390.9;;;6.0;0.0
72226;BME280;60130;52.250;5.048;2023-03-16T04:40:00;390.9;;;6.0;0.0
72226;BME280;60130;52.250;5.048;2023-03-16T04:45:00;390.9;;;6.1;0.0
72226;BME280;60130;52.250;5.048;2023-03-16T04:50:00;391.0;;;6.1;0.0
72226;BME280;60130;52.250;5.048;2023-03-16T04:55:00;391.0;;;6.1;0.0
72226;BME280;60130;52.250;5.048;2023-03-16T05:00:00;390.9;;;6.1;0.0
72226;BME280;60130;52.250;5.048;2023-03-16T05:05:00;390.9;;;6.1;0.0
72226;BME280;60130;52.250;5.048;2023-03-16T05:10:00;390.9;;;6.1;0.0
72226;BME280;60130;52.250;5.048;2023-03-16T05:15:00;391.0;;;6.1;0.0
72226;BME280;60130;52.250;5.048;2023-03-16T05:20:00;390.9;;;6.1;0.0
72226;BME280;60130;52.250;5.048;2023-03-16T05:25:00;390.9;;;6.1;0.0
72226;BME280;60130;52.250;5.048;2023-03-16T05:30:00;390.9;;;6.0;0.0
72226;BME280;60130;52.250;5.048;2023-03-16T05:35:00;390.9;;;6.0;0.0
72226;BME280;60130;52.250;5.048;2023-03-16T05:40:00;390.8;;;5.9;0.0
72226;BME280;60130;52.250;5.048;2023-03-16T05:45:00;390.8;;;5.8;0.0
72226;BME280;60130;52.250;5.048;2023-03-16T05:50:00;390.7;;;5.7;0.0
72226;BME280;60130;52.250;5.048;2023-03-16T05:55:01;390.8;;;5.8;0.0
72226;BME280;60130;52.250;5.048;2023-03-16T06:00:01;390.8;;;5.9;0.0
72226;BME280;60130;52.250;5.048;2023-03-16T06:05:00;390.8;;;5.9;0.0
72226;BME280;60130;52.250;5.048;2023-03-16T06:10:00;390.8;;;5.9;0.0
72226;BME280;60130;52.250;5.048;2023-03-16T06:15:00;390.8;;;5.9;0.0
72226;BME280;60130;52.250;5.048;2023-03-16T06:20:00;390.8;;;5.9;0.0
72226;BME280;60130;52.250;5.048;2023-03-16T06:25:00;390.9;;;6.0;0.0
72226;BME280;60130;52.250;5.048;2023-03-16T06:30:00;390.9;;;6.0;0.0
72226;BME280;60130;52.250;5.048;2023-03-16T06:35:00;390.9;;;6.1;0.0
72226;BME280;60130;52.250;5.048;2023-03-16T06:40:00;391.0;;;6.1;0.0
72226;BME280;60130;52.250;5.048;2023-03-16T06:45:00;391.0;;;6.1;0.0
72226;BME280;60130;52.250;5.048;2023-03-16T06:50:00;391.0;;;6.2;0.0
72226;BME280;60130;52.250;5.048;2023-03-16T06:55:00;391.1;;;6.4;0.0
72226;BME280;60130;52.250;5.048;2023-03-16T07:00:00;391.2;;;6.5;0.0
72226;BME280;60130;52.250;5.048;2023-03-16T07:05:00;391.2;;;6.5;0.0
72226;BME280;60130;52.250;5.048;2023-03-16T07:10:00;391.3;;;6.6;0.0
72226;BME280;60130;52.250;5.048;2023-03-16T07:15:00;391.4;;;6.7;0.0
72226;BME280;60130;52.250;5.048;2023-03-16T07:20:00;391.3;;;6.7;0.0
72226;BME280;60130;52.250;5.048;2023-03-16T07:25:00;391.3;;;6.6;0.0
72226;BME280;60130;52.250;5.048;2023-03-16T07:30:00;391.2;;;6.5;0.0
72226;BME280;60130;52.250;5.048;2023-03-16T07:35:00;391.2;;;6.5;0.0
72226;BME280;60130;52.250;5.048;2023-03-16T07:40:00;391.2;;;6.5;0.0
72226;BME280;60130;52.250;5.048;2023-03-16T07:45:00;391.2;;;6.5;0.0
72226;BME280;60130;52.250;5.048;2023-03-16T07:50:00;391.2;;;6.5;0.0
72226;BME280;60130;52.250;5.048;2023-03-16T07:55:00;391.4;;;6.7;0.0
72226;BME280;60130;52.250;5.048;2023-03-16T08:00:00;391.5;;;7.0;0.0
72226;BME280;60130;52.250;5.048;2023-03-16T08:05:00;391.6;;;7.0;0.0
72226;BME280;60130;52.250;5.048;2023-03-16T08:10:00;391.5;;;7.0;0.0
72226;BME280;60130;52.250;5.048;2023-03-16T08:15:00;391.5;;;6.9;0.0
72226;BME280;60130;52.250;5.048;2023-03-16T08:20:00;391.5;;;6.9;0.0
72226;BME280;60130;52.250;5.048;2023-03-16T08:25:00;391.5;;;6.9;0.0
72226;BME280;60130;52.250;5.048;2023-03-16T08:30:00;391.5;;;6.9;0.0
72226;BME280;60130;52.250;5.048;2023-03-16T08:35:00;391.7;;;7.1;0.0
72226;BME280;60130;52.250;5.048;2023-03-16T08:40:00;391.7;;;7.2;0.0
72226;BME280;60130;52.250;5.048;2023-03-16T08:45:00;391.8;;;7.4;0.0
72226;BME280;60130;52.250;5.048;2023-03-16T08:50:00;391.9;;;7.6;0.0
72226;BME280;60130;52.250;5.048;2023-03-16T08:55:00;392.0;;;7.7;0.0
72226;BME280;60130;52.250;5.048;2023-03-16T09:00:00;392.0;;;7.7;0.0
72226;BME280;60130;52.250;5.048;2023-03-16T09:05:00;392.1;;;7.8;0.0
72226;BME280;60130;52.250;5.048;2023-03-16T09:10:00;392.1;;;7.8;0.0
72226;BME280;60130;52.250;5.048;2023-03-16T09:15:00;392.2;;;8.0;0.0
72226;BME280;60130;52.250;5.048;2023-03-16T09:20:00;392.2;;;8.0;0.0
72226;BME280;60130;52.250;5.048;2023-03-16T09:25:00;392.3;;;8.0;0.0
72226;BME280;60130;52.250;5.048;2023-03-16T09:30:00;392.4;;;8.2;0.0
72226;BME280;60130;52.250;5.048;2023-03-16T09:35:00;392.5;;;8.4;0.0
72226;BME280;60130;52.250;5.048;2023-03-16T09:40:00;392.9;;;8.9;0.0
72226;BME280;60130;52.250;5.048;2023-03-16T09:45:05;393.0;;;9.1;0.0
72226;BME280;60130;52.250;5.048;2023-03-16T09:50:03;393.3;;;9.5;0.0
72226;BME280;60130;52.250;5.048;2023-03-16T09:55:03;393.4;;;9.7;0.0
72226;BME280;60130;52.250;5.048;2023-03-16T10:00:09;393.5;;;9.9;0.0
72226;BME280;60130;52.250;5.048;2023-03-16T10:05:07;393.5;;;9.8;0.0
72226;BME280;60130;52.250;5.048;2023-03-16T10:10:05;393.5;;;9.8;0.0
72226;BME280;60130;52.250;5.048;2023-03-16T10:15:05;393.7;;;10.2;0.0
72226;BME280;60130;52.250;5.048;2023-03-16T10:20:02;393.8;;;10.2;0.0
72226;BME280;60130;52.250;5.048;2023-03-16T10:25:05;393.9;;;10.4;0.0
72226;BME280;60130;52.250;5.048;2023-03-16T10:30:01;393.9;;;10.4;0.0
72226;BME280;60130;52.250;5.048;2023-03-16T10:35:02;394.0;;;10.6;0.0
72226;BME280;60130;52.250;5.048;2023-03-16T10:40:04;394.1;;;10.8;0.0
72226;BME280;60130;52.250;5.048;2023-03-16T10:45:00;394.4;;;11.2;0.0
72226;BME280;60130;52.250;5.048;2023-03-16T10:50:11;394.4;;;11.1;0.0
72226;BME280;60130;52.250;5.048;2023-03-16T10:55:06;394.3;;;10.9;0.0
72226;BME280;60130;52.250;5.048;2023-03-16T11:00:04;394.3;;;11.0;0.0
72226;BME280;60130;52.250;5.048;2023-03-16T11:05:10;394.3;;;11.0;0.0
72226;BME280;60130;52.250;5.048;2023-03-16T11:10:00;394.4;;;11.1;0.0
72226;BME280;60130;52.250;5.048;2023-03-16T11:15:01;394.4;;;11.1;0.0
72226;BME280;60130;52.250;5.048;2023-03-16T11:20:02;394.3;;;11.1;0.0
72226;BME280;60130;52.250;5.048;2023-03-16T11:25:07;394.4;;;11.2;0.0
72226;BME280;60130;52.250;5.048;2023-03-16T11:30:04;394.5;;;11.3;0.0
72226;BME280;60130;52.250;5.048;2023-03-16T11:35:00;394.6;;;11.5;0.0
72226;BME280;60130;52.250;5.048;2023-03-16T11:40:08;394.7;;;11.6;0.0
72226;BME280;60130;52.250;5.048;2023-03-16T11:45:08;394.7;;;11.6;0.0
72226;BME280;60130;52.250;5.048;2023-03-16T11:50:05;394.8;;;11.6;0.0
72226;BME280;60130;52.250;5.048;2023-03-16T11:55:06;395.0;;;11.9;0.0
72226;BME280;60130;52.250;5.048;2023-03-16T12:00:05;395.0;;;12.1;0.0
72226;BME280;60130;52.250;5.048;2023-03-16T12:05:19;395.1;;;12.2;0.0
72226;BME280;60130;52.250;5.048;2023-03-16T12:10:05;395.2;;;12.3;0.0
72226;BME280;60130;52.250;5.048;2023-03-16T12:15:07;395.3;;;12.4;0.0
72226;BME280;60130;52.250;5.048;2023-03-16T12:20:02;395.4;;;12.6;0.0
72226;BME280;60130;52.250;5.048;2023-03-16T12:25:02;395.5;;;12.7;0.0
72226;BME280;60130;52.250;5.048;2023-03-16T12:30:05;395.6;;;12.9;0.0
72226;BME280;60130;52.250;5.048;2023-03-16T12:35:05;395.7;;;13.0;0.0
72226;BME280;60130;52.250;5.048;2023-03-16T12:40:04;395.7;;;13.0;0.0
72226;BME280;60130;52.250;5.048;2023-03-16T12:45:02;395.6;;;12.9;0.0
72226;BME280;60130;52.250;5.048;2023-03-16T12:50:06;395.7;;;13.0;0.0
72226;BME280;60130;52.250;5.048;2023-03-16T12:55:07;395.9;;;13.3;0.0
72226;BME280;60130;52.250;5.048;2023-03-16T13:00:00;395.6;;;12.9;0.0
72226;BME280;60130;52.250;5.048;2023-03-16T13:05:06;395.9;;;13.3;0.0
72226;BME280;60130;52.250;5.048;2023-03-16T13:10:03;396.2;;;13.8;0.0
72226;BME280;60130;52.250;5.048;2023-03-16T13:15:00;396.3;;;13.9;0.0
72226;BME280;60130;52.250;5.048;2023-03-16T13:20:04;396.1;;;13.6;0.0
72226;BME280;60130;52.250;5.048;2023-03-16T13:25:11;396.2;;;13.7;0.0
72226;BME280;60130;52.250;5.048;2023-03-16T13:30:11;396.2;;;13.7;0.0
72226;BME280;60130;52.250;5.048;2023-03-16T13:35:03;396.6;;;14.3;0.0
72226;BME280;60130;52.250;5.048;2023-03-16T13:40:01;396.6;;;14.4;0.0
72226;BME280;60130;52.250;5.048;2023-03-16T13:45:12;396.7;;;14.4;0.0
72226;BME280;60130;52.250;5.048;2023-03-16T13:50:00;396.5;;;14.1;0.0
72226;BME280;60130;52.250;5.048;2023-03-16T13:55:02;396.7;;;14.5;0.0
72226;BME280;60130;52.250;5.048;2023-03-16T14:00:03;396.5;;;14.2;0.0
72226;BME280;60130;52.250;5.048;2023-03-16T14:05:08;396.4;;;14.0;0.0
72226;BME280;60130;52.250;5.048;2023-03-16T14:10:00;396.4;;;14.1;0.0
72226;BME280;60130;52.250;5.048;2023-03-16T14:15:04;396.7;;;14.4;0.0
72226;BME280;60130;52.250;5.048;2023-03-16T14:20:00;396.7;;;14.4;0.0
72226;BME280;60130;52.250;5.048;2023-03-16T14:25:00;396.6;;;14.4;0.0
72226;BME280;60130;52.250;5.048;2023-03-16T14:30:12;396.6;;;14.4;0.0
72226;BME280;60130;52.250;5.048;2023-03-16T14:35:09;396.4;;;14.1;0.0
72226;BME280;60130;52.250;5.048;2023-03-16T14:40:01;396.3;;;13.9;0.0
72226;BME280;60130;52.250;5.048;2023-03-16T14:45:02;396.4;;;14.1;0.0
72226;BME280;60130;52.250;5.048;2023-03-16T14:50:06;396.4;;;14.1;0.0
72226;BME280;60130;52.250;5.048;2023-03-16T14:55:09;396.5;;;14.1;0.0
72226;BME280;60130;52.250;5.048;2023-03-16T15:00:00;396.4;;;14.1;0.0
72226;BME280;60130;52.250;5.048;2023-03-16T15:05:00;396.2;;;13.8;0.0
72226;BME280;60130;52.250;5.048;2023-03-16T15:10:05;396.2;;;13.7;0.0
72226;BME280;60130;52.250;5.048;2023-03-16T15:15:00;396.2;;;13.7;0.0
72226;BME280;60130;52.250;5.048;2023-03-16T15:20:00;396.2;;;13.8;0.0
72226;BME280;60130;52.250;5.048;2023-03-16T15:25:06;396.3;;;13.9;0.0
72226;BME280;60130;52.250;5.048;2023-03-16T15:30:00;396.2;;;13.8;0.0
72226;BME280;60130;52.250;5.048;2023-03-16T15:35:00;396.1;;;13.6;0.0
72226;BME280;60130;52.250;5.048;2023-03-16T15:40:01;396.0;;;13.5;0.0
72226;BME280;60130;52.250;5.048;2023-03-16T15:45:00;396.0;;;13.5;0.0
72226;BME280;60130;52.250;5.048;2023-03-16T15:50:00;396.4;;;14.0;0.0
72226;BME280;60130;52.250;5.048;2023-03-16T15:55:00;396.7;;;14.5;0.0
72226;BME280;60130;52.250;5.048;2023-03-16T16:00:00;396.6;;;14.3;0.0
72226;BME280;60130;52.250;5.048;2023-03-16T16:05:00;396.5;;;14.2;0.0
72226;BME280;60130;52.250;5.048;2023-03-16T16:10:00;396.6;;;14.4;0.0
72226;BME280;60130;52.250;5.048;2023-03-16T16:15:00;396.6;;;14.3;0.0
72226;BME280;60130;52.250;5.048;2023-03-16T16:20:00;396.5;;;14.1;0.0
72226;BME280;60130;52.250;5.048;2023-03-16T16:25:00;396.3;;;13.8;0.0
72226;BME280;60130;52.250;5.048;2023-03-16T16:30:00;396.1;;;13.7;0.0
72226;BME280;60130;52.250;5.048;2023-03-16T16:35:00;396.1;;;13.6;0.0
72226;BME280;60130;52.250;5.048;2023-03-16T16:40:00;396.1;;;13.6;0.0
72226;BME280;60130;52.250;5.048;2023-03-16T16:45:00;396.1;;;13.6;0.0
72226;BME280;60130;52.250;5.048;2023-03-16T16:50:00;396.0;;;13.5;0.0
72226;BME280;60130;52.250;5.048;2023-03-16T16:55:00;395.9;;;13.2;0.0
72226;BME280;60130;52.250;5.048;2023-03-16T17:00:01;395.7;;;13.1;0.0
72226;BME280;60130;52.250;5.048;2023-03-16T17:05:00;395.6;;;12.9;0.0
72226;BME280;60130;52.250;5.048;2023-03-16T17:10:00;395.5;;;12.6;0.0
72226;BME280;60130;52.250;5.048;2023-03-16T17:15:00;395.4;;;12.5;0.0
72226;BME280;60130;52.250;5.048;2023-03-16T17:20:00;395.3;;;12.5;0.0
72226;BME280;60130;52.250;5.048;2023-03-16T17:25:00;395.2;;;12.4;0.0
72226;BME280;60130;52.250;5.048;2023-03-16T17:30:00;395.1;;;12.2;0.0
72226;BME280;60130;52.250;5.048;2023-03-16T17:35:00;395.1;;;12.2;0.0
72226;BME280;60130;52.250;5.048;2023-03-16T17:40:00;395.0;;;12.0;0.0
72226;BME280;60130;52.250;5.048;2023-03-16T17:45:00;394.9;;;11.8;0.0
72226;BME280;60130;52.250;5.048;2023-03-16T17:50:00;394.8;;;11.6;0.0
72226;BME280;60130;52.250;5.048;2023-03-16T17:55:00;394.7;;;11.5;0.0
72226;BME280;60130;52.250;5.048;2023-03-16T18:00:02;394.6;;;11.4;0.0
72226;BME280;60130;52.250;5.048;2023-03-16T18:05:00;394.6;;;11.4;0.0
72226;BME280;60130;52.250;5.048;2023-03-16T18:10:00;394.5;;;11.3;0.0
72226;BME280;60130;52.250;5.048;2023-03-16T18:15:00;394.5;;;11.3;0.0
72226;BME280;60130;52.250;5.048;2023-03-16T18:20:00;394.5;;;11.3;0.0
72226;BME280;60130;52.250;5.048;2023-03-16T18:25:00;394.4;;;11.1;0.0
72226;BME280;60130;52.250;5.048;2023-03-16T18:30:00;394.4;;;11.1;0.0
72226;BME280;60130;52.250;5.048;2023-03-16T18:35:00;394.2;;;10.9;0.0
72226;BME280;60130;52.250;5.048;2023-03-16T18:40:00;394.2;;;10.8;0.0
72226;BME280;60130;52.250;5.048;2023-03-16T18:45:00;394.0;;;10.6;0.0
72226;BME280;60130;52.250;5.048;2023-03-16T18:50:00;394.1;;;10.7;0.0
72226;BME280;60130;52.250;5.048;2023-03-16T18:55:00;394.2;;;10.8;0.0
72226;BME280;60130;52.250;5.048;2023-03-16T19:00:00;394.2;;;10.8;0.0
72226;BME280;60130;52.250;5.048;2023-03-16T19:05:01;394.2;;;10.8;0.0
72226;BME280;60130;52.250;5.048;2023-03-16T19:10:02;394.1;;;10.7;0.0
72226;BME280;60130;52.250;5.048;2023-03-16T19:15:00;394.0;;;10.6;0.0
72226;BME280;60130;52.250;5.048;2023-03-16T19:20:00;394.0;;;10.5;0.0
72226;BME280;60130;52.250;5.048;2023-03-16T19:25:00;393.8;;;10.3;0.0
72226;BME280;60130;52.250;5.048;2023-03-16T19:30:00;393.8;;;10.2;0.0
72226;BME280;60130;52.250;5.048;2023-03-16T19:35:00;393.7;;;10.1;0.0
72226;BME280;60130;52.250;5.048;2023-03-16T19:40:00;393.6;;;10.0;0.0
72226;BME280;60130;52.250;5.048;2023-03-16T19:45:01;393.6;;;10.0;0.0
72226;BME280;60130;52.250;5.048;2023-03-16T19:50:00;393.6;;;10.0;0.0
72226;BME280;60130;52.250;5.048;2023-03-16T19:55:00;393.5;;;9.8;0.0
72226;BME280;60130;52.250;5.048;2023-03-16T20:00:00;393.4;;;9.7;0.0
72226;BME280;60130;52.250;5.048;2023-03-16T20:05:00;393.4;;;9.6;0.0
72226;BME280;60130;52.250;5.048;2023-03-16T20:10:00;393.3;;;9.5;0.0
72226;BME280;60130;52.250;5.048;2023-03-16T20:15:00;393.3;;;9.6;0.0
72226;BME280;60130;52.250;5.048;2023-03-16T20:20:00;393.3;;;9.5;0.0
72226;BME280;60130;52.250;5.048;2023-03-16T20:25:00;393.3;;;9.6;0.0
72226;BME280;60130;52.250;5.048;2023-03-16T20:30:00;393.3;;;9.5;0.0
72226;BME280;60130;52.250;5.048;2023-03-16T20:35:00;393.3;;;9.5;0.0
72226;BME280;60130;52.250;5.048;2023-03-16T20:40:00;393.2;;;9.5;0.0
72226;BME280;60130;52.250;5.048;2023-03-16T20:45:00;393.2;;;9.4;0.0
72226;BME280;60130;52.250;5.048;2023-03-16T20:50:00;393.2;;;9.3;0.0
72226;BME280;60130;52.250;5.048;2023-03-16T20:55:00;393.1;;;9.3;0.0
72226;BME280;60130;52.250;5.048;2023-03-16T21:00:00;393.2;;;9.3;0.0
72226;BME280;60130;52.250;5.048;2023-03-16T21:05:02;393.1;;;9.2;0.0
72226;BME280;60130;52.250;5.048;2023-03-16T21:10:00;393.1;;;9.2;0.0
72226;BME280;60130;52.250;5.048;2023-03-16T21:15:01;393.0;;;9.1;0.0
72226;BME280;60130;52.250;5.048;2023-03-16T21:20:00;393.0;;;9.0;0.0
72226;BME280;60130;52.250;5.048;2023-03-16T21:25:00;393.0;;;9.0;0.0
72226;BME280;60130;52.250;5.048;2023-03-16T21:30:05;393.0;;;9.0;0.0
72226;BME280;60130;52.250;5.048;2023-03-16T21:35:00;392.9;;;9.0;0.0
72226;BME280;60130;52.250;5.048;2023-03-16T21:40:00;393.0;;;9.0;0.0
72226;BME280;60130;52.250;5.048;2023-03-16T21:45:00;393.0;;;9.1;0.0
72226;BME280;60130;52.250;5.048;2023-03-16T21:50:00;392.9;;;9.0;0.0
72226;BME280;60130;52.250;5.048;2023-03-16T21:55:00;392.9;;;8.9;0.0
72226;BME280;60130;52.250;5.048;2023-03-16T22:00:00;392.8;;;8.8;0.0
72226;BME280;60130;52.250;5.048;2023-03-16T22:05:00;392.8;;;8.8;0.0
72226;BME280;60130;52.250;5.048;2023-03-16T22:10:00;392.8;;;8.8;0.0
72226;BME280;60130;52.250;5.048;2023-03-16T22:15:00;392.8;;;8.8;0.0
72226;BME280;60130;52.250;5.048;2023-03-16T22:20:00;392.8;;;8.8;0.0
72226;BME280;60130;52.250;5.048;2023-03-16T22:25:00;392.8;;;8.8;0.0
72226;BME280;60130;52.250;5.048;2023-03-16T22:30:00;392.8;;;8.8;0.0
72226;BME280;60130;52.250;5.048;2023-03-16T22:35:00;392.8;;;8.8;0.0
72226;BME280;60130;52.250;5.048;2023-03-16T22:40:00;392.8;;;8.8;0.0
72226;BME280;60130;52.250;5.048;2023-03-16T22:45:01;392.9;;;8.9;0.0
72226;BME280;60130;52.250;5.048;2023-03-16T22:50:00;392.9;;;8.9;0.0
72226;BME280;60130;52.250;5.048;2023-03-16T22:55:02;392.9;;;8.9;0.0
72226;BME280;60130;52.250;5.048;2023-03-16T23:00:00;392.9;;;8.9;0.0
72226;BME280;60130;52.250;5.048;2023-03-16T23:05:00;392.9;;;8.9;0.0
72226;BME280;60130;52.250;5.048;2023-03-16T23:10:00;392.9;;;8.9;0.0
72226;BME280;60130;52.250;5.048;2023-03-16T23:15:00;392.9;;;8.9;0.0
72226;BME280;60130;52.250;5.048;2023-03-16T23:20:00;392.9;;;8.9;0.0
72226;BME280;60130;52.250;5.048;2023-03-16T23:25:00;392.9;;;9.0;0.0
72226;BME280;60130;52.250;5.048;2023-03-16T23:30:00;392.9;;;9.0;0.0
72226;BME280;60130;52.250;5.048;2023-03-16T23:35:00;392.9;;;9.0;0.0
72226;BME280;60130;52.250;5.048;2023-03-16T23:40:00;392.9;;;9.0;0.0
72226;BME280;60130;52.250;5.048;2023-03-16T23:45:05;392.9;;;8.9;0.0
72226;BME280;60130;52.250;5.048;2023-03-16T23:50:00;392.8;;;8.8;0.0
72226;BME280;60130;52.250;5.048;2023-03-16T23:55:00;392.8;;;8.8;0.0
